Time;durP1;ratioP1;P1;durP2;ratioP2;P2;SDS_P1;SDS_P2;PMS_P1;PMS_P2;Temp;Humidity;BMP_temperature;BMP_pressure;BME280_temperature;BME280_humidity;BME280_pressure;Samples;Min_cycle;Max_cycle;Signal;HPM_P1;HPM_P2
2023/09/11 00:00:38;;;;;;;8.35;7.55;;;20.30;79.80;;;;;;4994115;28;20037;-64
2023/09/11 00:03:04;;;;;;;8.23;7.25;;;20.30;80.00;;;;;;4993799;28;20064;-64
2023/09/11 00:05:30;;;;;;;8.05;7.35;;;20.30;80.10;;;;;;4995128;28;20493;-63
2023/09/11 00:07:55;;;;;;;8.02;7.32;;;20.20;80.00;;;;;;4999134;28;20043;-64
2023/09/11 00:10:21;;;;;;;7.95;7.18;;;20.20;80.00;;;;;;4999770;28;20595;-63
2023/09/11 00:12:46;;;;;;;8.07;7.38;;;20.20;80.00;;;;;;4996704;28;20034;-64
2023/09/11 00:15:12;;;;;;;8.23;7.25;;;20.20;80.10;;;;;;4998867;28;20049;-64
2023/09/11 00:17:38;;;;;;;19.85;7.85;;;20.10;80.10;;;;;;4999258;28;20033;-64
2023/09/11 00:20:10;;;;;;;8.80;7.90;;;20.10;80.30;;;;;;4998266;28;20460;-63
2023/09/11 00:22:36;;;;;;;9.57;8.68;;;20.00;80.60;;;;;;4994738;28;20038;-64
2023/09/11 00:25:02;;;;;;;9.40;8.60;;;19.90;80.80;;;;;;4995926;28;21858;-65
2023/09/11 00:27:27;;;;;;;9.73;8.60;;;19.90;81.30;;;;;;4995629;28;20164;-63
2023/09/11 00:29:53;;;;;;;11.25;8.38;;;19.90;81.60;;;;;;4995755;28;20033;-63
2023/09/11 00:32:19;;;;;;;8.82;8.02;;;19.80;81.90;;;;;;4996431;28;20029;-64
2023/09/11 00:34:44;;;;;;;9.25;8.38;;;19.80;82.00;;;;;;4996971;28;20506;-63
2023/09/11 00:37:10;;;;;;;10.32;8.75;;;19.80;82.20;;;;;;4995669;28;20517;-63
2023/09/11 00:39:35;;;;;;;9.88;8.88;;;19.80;82.20;;;;;;4995059;28;20061;-64
2023/09/11 00:42:01;;;;;;;9.40;8.32;;;19.70;82.20;;;;;;4995580;28;22329;-63
2023/09/11 00:44:26;;;;;;;9.25;8.30;;;19.70;82.40;;;;;;4993326;28;20394;-64
2023/09/11 00:46:53;;;;;;;11.38;8.35;;;19.70;82.60;;;;;;4995745;28;20038;-65
2023/09/11 00:49:20;;;;;;;11.68;8.98;;;19.60;82.70;;;;;;4995237;28;20091;-63
2023/09/11 00:51:46;;;;;;;9.80;8.80;;;19.60;83.80;;;;;;4994257;28;20386;-64
2023/09/11 00:54:13;;;;;;;9.50;8.45;;;19.60;83.10;;;;;;4995397;28;20096;-63
2023/09/11 00:56:39;;;;;;;9.88;8.98;;;19.60;83.10;;;;;;4994748;28;20109;-63
2023/09/11 00:59:05;;;;;;;10.52;8.50;;;19.60;82.90;;;;;;4997598;28;20494;-64
2023/09/11 01:01:31;;;;;;;9.52;8.68;;;19.60;83.10;;;;;;4996337;28;20093;-64
2023/09/11 01:03:58;;;;;;;9.57;8.57;;;19.60;83.10;;;;;;4993136;28;20030;-64
2023/09/11 01:06:24;;;;;;;9.30;8.40;;;19.60;83.20;;;;;;4996574;28;20424;-63
2023/09/11 01:08:51;;;;;;;9.07;8.15;;;19.60;83.20;;;;;;4998706;28;20141;-64
2023/09/11 01:11:19;;;;;;;10.77;8.88;;;19.60;83.20;;;;;;4995561;28;20384;-64
2023/09/11 01:13:45;;;;;;;10.73;9.18;;;19.60;83.30;;;;;;4996212;28;20034;-64
2023/09/11 01:16:32;;;;;;;9.82;8.82;;;19.50;83.30;;;;;;4997364;28;20030;-64
2023/09/11 01:19:13;;;;;;;8.75;8.00;;;19.50;84.00;;;;;;4997010;28;20044;-64
2023/09/11 01:21:58;;;;;;;9.30;8.40;;;19.50;83.10;;;;;;4994104;28;20057;-64
2023/09/11 01:24:29;;;;;;;9.20;8.25;;;19.50;83.60;;;;;;4994555;28;20377;-64
2023/09/11 01:27:19;;;;;;;8.93;8.15;;;19.50;83.30;;;;;;4994606;28;20042;-64
2023/09/11 01:29:45;;;;;;;9.10;8.00;;;19.50;83.60;;;;;;4996474;28;20042;-64
2023/09/11 01:32:11;;;;;;;8.80;8.00;;;19.40;82.90;;;;;;4996789;28;20068;-64
2023/09/11 01:34:37;;;;;;;10.52;9.02;;;19.40;82.90;;;;;;4992950;28;20045;-64
2023/09/11 01:37:02;;;;;;;9.55;8.55;;;19.50;83.10;;;;;;4996734;28;20038;-64
2023/09/11 01:39:28;;;;;;;9.40;8.50;;;19.60;83.30;;;;;;4996071;28;20050;-62
2023/09/11 01:42:00;;;;;;;9.88;8.82;;;19.40;83.10;;;;;;4996545;28;20130;-64
2023/09/11 01:44:39;;;;;;;10.07;9.02;;;19.40;83.40;;;;;;4995343;28;20096;-63
2023/09/11 01:47:07;;;;;;;9.48;8.57;;;19.40;83.80;;;;;;4996596;28;20425;-63
2023/09/11 01:49:33;;;;;;;10.05;9.05;;;19.40;83.30;;;;;;4995858;28;20038;-64
2023/09/11 01:52:00;;;;;;;9.27;8.43;;;19.40;83.40;;;;;;4994959;28;20104;-64
2023/09/11 01:54:27;;;;;;;9.73;8.65;;;19.30;83.50;;;;;;4994808;28;20034;-63
2023/09/11 01:56:53;;;;;;;10.27;9.32;;;19.30;83.50;;;;;;4996997;28;20523;-64
2023/09/11 01:59:19;;;;;;;10.45;9.00;;;19.30;83.60;;;;;;4994881;28;20045;-64
2023/09/11 02:01:44;;;;;;;9.77;8.88;;;19.30;83.60;;;;;;4995559;28;20034;-64
2023/09/11 02:04:10;;;;;;;9.38;8.57;;;19.30;83.60;;;;;;4995487;28;20040;-63
2023/09/11 02:06:35;;;;;;;9.52;8.63;;;19.30;83.60;;;;;;4993853;28;20042;-64
2023/09/11 02:09:02;;;;;;;10.38;9.38;;;19.20;83.40;;;;;;4996707;28;20042;-63
2023/09/11 02:11:28;;;;;;;10.32;9.00;;;19.20;83.60;;;;;;4994129;28;20117;-63
2023/09/11 02:13:54;;;;;;;11.43;10.32;;;19.20;83.80;;;;;;4995753;28;20589;-64
2023/09/11 02:16:19;;;;;;;10.27;9.25;;;19.20;84.00;;;;;;4995880;28;20045;-63
2023/09/11 02:18:45;;;;;;;10.05;9.10;;;19.20;83.90;;;;;;4995930;28;20034;-63
2023/09/11 02:21:11;;;;;;;9.77;8.88;;;19.20;83.80;;;;;;4993742;28;20029;-63
2023/09/11 02:23:36;;;;;;;11.10;9.05;;;19.10;83.70;;;;;;4993196;28;20034;-64
2023/09/11 02:26:02;;;;;;;8.88;7.97;;;19.10;83.70;;;;;;4995586;28;20112;-65
2023/09/11 02:28:28;;;;;;;9.35;8.50;;;19.10;83.50;;;;;;4996023;28;20037;-65
2023/09/11 02:30:54;;;;;;;9.77;8.85;;;19.10;83.60;;;;;;4994439;28;20041;-65
2023/09/11 02:33:19;;;;;;;10.13;9.13;;;19.00;83.60;;;;;;4992609;28;20034;-66
2023/09/11 02:35:51;;;;;;;9.68;8.77;;;19.00;83.60;;;;;;4993390;28;20049;-65
2023/09/11 02:38:16;;;;;;;9.75;8.82;;;19.00;83.60;;;;;;4993181;28;20041;-66
2023/09/11 02:40:42;;;;;;;9.60;8.73;;;19.00;83.60;;;;;;4992401;28;20330;-64
2023/09/11 02:43:07;;;;;;;9.07;8.23;;;18.90;83.60;;;;;;4992864;28;20064;-66
2023/09/11 02:45:33;;;;;;;9.85;8.88;;;18.90;83.60;;;;;;4992768;28;20125;-65
2023/09/11 02:47:58;;;;;;;9.73;8.55;;;18.90;83.60;;;;;;4993472;28;20069;-65
2023/09/11 02:50:24;;;;;;;9.57;8.57;;;18.90;83.60;;;;;;4992309;28;20042;-65
2023/09/11 02:52:49;;;;;;;9.65;8.15;;;18.90;83.60;;;;;;4992221;28;20189;-65
2023/09/11 02:55:15;;;;;;;9.77;8.88;;;18.90;83.60;;;;;;4993997;28;20038;-66
2023/09/11 02:57:41;;;;;;;9.70;8.80;;;18.80;83.50;;;;;;4993695;28;20596;-65
2023/09/11 03:00:08;;;;;;;11.57;9.18;;;18.80;83.60;;;;;;4994205;28;20511;-65
2023/09/11 03:02:34;;;;;;;10.38;9.38;;;18.80;83.60;;;;;;4995252;28;20172;-65
2023/09/11 03:05:00;;;;;;;10.50;9.45;;;18.70;84.50;;;;;;4993722;28;20120;-65
2023/09/11 03:07:25;;;;;;;9.65;8.73;;;18.70;83.80;;;;;;4994643;28;20040;-65
2023/09/11 03:09:51;;;;;;;11.05;9.00;;;18.70;83.90;;;;;;4993742;28;20115;-65
2023/09/11 03:12:16;;;;;;;10.32;9.20;;;18.70;84.00;;;;;;4990097;28;20737;-63
2023/09/11 03:14:42;;;;;;;10.77;9.77;;;18.70;84.00;;;;;;4992125;28;20042;-66
2023/09/11 03:17:10;;;;;;;9.85;8.85;;;18.60;84.00;;;;;;4995117;28;20045;-65
2023/09/11 03:19:36;;;;;;;10.68;9.32;;;18.60;84.00;;;;;;5007450;28;20038;-66
2023/09/11 03:22:02;;;;;;;10.40;9.43;;;18.60;84.00;;;;;;4993843;28;20038;-65
2023/09/11 03:24:28;;;;;;;10.70;9.60;;;18.60;84.10;;;;;;4993644;28;20045;-64
2023/09/11 03:26:53;;;;;;;10.23;9.15;;;18.60;84.20;;;;;;4993707;28;20027;-65
2023/09/11 03:29:19;;;;;;;10.63;9.63;;;18.50;84.30;;;;;;4994452;28;20117;-64
2023/09/11 03:31:44;;;;;;;10.48;9.48;;;18.50;84.30;;;;;;4991181;28;20043;-65
2023/09/11 03:34:10;;;;;;;10.45;9.35;;;18.50;84.30;;;;;;4993185;28;20159;-65
2023/09/11 03:36:36;;;;;;;11.35;10.05;;;18.50;84.30;;;;;;4990501;28;20042;-65
2023/09/11 03:39:02;;;;;;;11.50;9.88;;;18.40;84.40;;;;;;4993081;28;20116;-65
2023/09/11 03:41:28;;;;;;;10.50;9.50;;;18.40;84.60;;;;;;4995829;28;20065;-65
2023/09/11 03:43:53;;;;;;;10.35;9.35;;;18.40;84.60;;;;;;4995770;28;20160;-64
2023/09/11 03:46:19;;;;;;;10.18;9.20;;;18.40;84.70;;;;;;4997168;28;20065;-65
2023/09/11 03:48:45;;;;;;;10.15;9.15;;;18.30;84.60;;;;;;4997376;28;20492;-65
2023/09/11 03:51:11;;;;;;;9.98;8.98;;;18.30;84.70;;;;;;4996570;28;20049;-65
2023/09/11 03:53:42;;;;;;;9.65;8.75;;;18.30;84.80;;;;;;4998498;28;20088;-64
2023/09/11 03:56:09;;;;;;;9.85;8.80;;;18.30;84.60;;;;;;4998824;28;20042;-65
2023/09/11 03:58:34;;;;;;;9.65;8.65;;;18.30;84.60;;;;;;4995305;28;20027;-65
2023/09/11 04:01:00;;;;;;;9.63;8.68;;;18.30;84.60;;;;;;5000720;28;20417;-65
2023/09/11 04:03:26;;;;;;;9.27;8.45;;;18.30;84.60;;;;;;4995548;28;20038;-65
2023/09/11 04:05:51;;;;;;;12.05;8.88;;;18.20;84.50;;;;;;4998648;28;20034;-64
2023/09/11 04:08:17;;;;;;;9.57;8.63;;;18.20;84.50;;;;;;4998344;28;20030;-65
2023/09/11 04:10:43;;;;;;;9.45;8.55;;;18.20;84.50;;;;;;4997319;28;20112;-65
2023/09/11 04:13:09;;;;;;;9.27;8.40;;;18.10;84.50;;;;;;4999023;28;20031;-65
2023/09/11 04:15:35;;;;;;;10.05;9.00;;;18.10;84.50;;;;;;4998100;28;20052;-64
2023/09/11 04:18:01;;;;;;;10.35;9.35;;;18.10;84.50;;;;;;4998669;28;20467;-65
2023/09/11 04:20:33;;;;;;;9.95;8.88;;;18.10;84.80;;;;;;4994897;28;20030;-65
2023/09/11 04:23:02;;;;;;;10.75;9.50;;;18.10;84.90;;;;;;4995349;28;20038;-64
2023/09/11 04:25:28;;;;;;;10.20;9.10;;;18.00;84.80;;;;;;4996934;28;20117;-64
2023/09/11 04:27:54;;;;;;;9.60;8.57;;;18.00;84.80;;;;;;4997535;28;20064;-65
2023/09/11 04:30:20;;;;;;;9.13;8.23;;;18.00;85.00;;;;;;4996398;28;20192;-64
2023/09/11 04:32:45;;;;;;;11.23;9.30;;;18.00;85.00;;;;;;4997223;28;20041;-64
2023/09/11 04:35:11;;;;;;;12.38;9.65;;;18.00;85.00;;;;;;4996959;28;20041;-64
2023/09/11 04:37:37;;;;;;;10.30;9.25;;;18.00;85.00;;;;;;4997476;28;20030;-65
2023/09/11 04:40:06;;;;;;;10.85;8.93;;;17.90;85.00;;;;;;4995386;28;20042;-65
2023/09/11 04:42:32;;;;;;;10.95;9.25;;;17.90;85.00;;;;;;4997523;28;20034;-65
2023/09/11 04:44:59;;;;;;;10.38;9.38;;;17.90;85.00;;;;;;4998452;28;20073;-65
2023/09/11 04:47:26;;;;;;;10.55;9.60;;;17.90;85.00;;;;;;4998354;28;20501;-65
2023/09/11 04:49:51;;;;;;;10.82;9.65;;;17.90;85.20;;;;;;4999016;28;20038;-65
2023/09/11 04:52:17;;;;;;;10.02;9.02;;;17.90;85.20;;;;;;4997053;28;20046;-64
2023/09/11 04:54:42;;;;;;;12.00;10.07;;;17.90;85.30;;;;;;4997311;28;20034;-65
2023/09/11 04:57:08;;;;;;;13.38;10.27;;;17.90;85.20;;;;;;4998264;28;20109;-64
2023/09/11 04:59:33;;;;;;;10.85;9.80;;;17.90;85.30;;;;;;4998553;28;20053;-65
2023/09/11 05:01:59;;;;;;;10.05;9.15;;;17.90;85.40;;;;;;4997407;28;20038;-65
2023/09/11 05:04:25;;;;;;;12.15;10.05;;;17.90;85.50;;;;;;4998187;28;20049;-65
2023/09/11 05:06:50;;;;;;;11.48;10.13;;;17.90;85.70;;;;;;4996913;28;20042;-65
2023/09/11 05:09:16;;;;;;;11.43;10.23;;;17.90;85.80;;;;;;4998375;28;20751;-65
2023/09/11 05:11:42;;;;;;;11.68;10.40;;;17.90;85.90;;;;;;4995402;28;20042;-65
2023/09/11 05:14:07;;;;;;;11.43;10.25;;;17.90;86.00;;;;;;4998173;28;20413;-65
2023/09/11 05:16:33;;;;;;;12.90;11.18;;;17.90;86.00;;;;;;4995257;28;20133;-64
2023/09/11 05:18:58;;;;;;;13.35;11.43;;;17.90;86.20;;;;;;4997688;28;20042;-65
2023/09/11 05:21:25;;;;;;;14.77;11.18;;;17.90;86.30;;;;;;4997382;28;20041;-64
2023/09/11 05:23:51;;;;;;;12.07;10.57;;;17.90;86.30;;;;;;4997453;28;20060;-64
2023/09/11 05:26:16;;;;;;;11.13;9.75;;;17.90;86.40;;;;;;4998278;28;20433;-64
2023/09/11 05:28:42;;;;;;;12.23;10.00;;;17.90;86.30;;;;;;4996026;28;20034;-64
2023/09/11 05:31:08;;;;;;;11.23;10.13;;;17.80;86.10;;;;;;5013065;28;20092;-65
2023/09/11 05:33:34;;;;;;;13.55;10.13;;;17.80;86.20;;;;;;4998016;28;20026;-65
2023/09/11 05:36:01;;;;;;;12.32;9.77;;;17.80;86.20;;;;;;4996703;28;20464;-64
2023/09/11 05:38:26;;;;;;;11.73;9.82;;;17.80;86.40;;;;;;4996872;28;20030;-66
2023/09/11 05:40:52;;;;;;;10.88;9.77;;;17.80;86.40;;;;;;4997395;28;20034;-65
2023/09/11 05:43:17;;;;;;;12.32;9.90;;;17.80;86.60;;;;;;4996724;28;20057;-65
2023/09/11 05:45:43;;;;;;;14.35;9.52;;;17.80;86.70;;;;;;4996470;28;20099;-64
2023/09/11 05:48:11;;;;;;;11.88;10.10;;;17.80;86.70;;;;;;4997334;28;20516;-64
2023/09/11 05:50:37;;;;;;;12.88;9.90;;;17.80;87.00;;;;;;4996544;28;20591;-65
2023/09/11 05:53:04;;;;;;;17.23;10.07;;;17.80;87.00;;;;;;4996519;28;20157;-65
2023/09/11 05:55:29;;;;;;;13.82;9.52;;;17.80;87.10;;;;;;4996797;28;20049;-64
2023/09/11 05:57:55;;;;;;;13.25;9.90;;;17.80;87.20;;;;;;4997733;28;20494;-65
2023/09/11 06:00:21;;;;;;;12.40;10.52;;;17.90;87.30;;;;;;4997457;28;20041;-65
2023/09/11 06:02:46;;;;;;;14.60;10.73;;;17.90;87.60;;;;;;4995633;28;20034;-65
2023/09/11 06:05:12;;;;;;;13.15;11.48;;;17.90;88.60;;;;;;4997533;28;20037;-64
2023/09/11 06:07:38;;;;;;;12.82;11.52;;;17.90;88.10;;;;;;4996768;28;20038;-64
2023/09/11 06:10:04;;;;;;;13.40;12.00;;;18.00;88.30;;;;;;4997794;28;20457;-64
2023/09/11 06:12:30;;;;;;;14.30;12.10;;;18.00;88.40;;;;;;4997867;28;20125;-64
2023/09/11 06:14:56;;;;;;;16.10;12.07;;;18.10;88.80;;;;;;4998122;28;20033;-65
2023/09/11 06:17:21;;;;;;;17.02;12.23;;;18.10;88.80;;;;;;4997962;28;20154;-65
2023/09/11 06:19:47;;;;;;;15.35;13.73;;;18.10;89.10;;;;;;4997455;28;20052;-65
2023/09/11 06:22:12;;;;;;;14.10;12.68;;;18.20;89.40;;;;;;4996670;28;20338;-65
2023/09/11 06:24:38;;;;;;;17.80;13.07;;;18.20;89.60;;;;;;4994912;28;20026;-65
2023/09/11 06:27:07;;;;;;;14.57;12.75;;;18.30;89.70;;;;;;4996904;28;20682;-65
2023/09/11 06:29:34;;;;;;;15.82;13.20;;;18.30;90.10;;;;;;4996609;28;20038;-64
2023/09/11 06:31:59;;;;;;;15.93;13.60;;;18.40;90.20;;;;;;4996052;28;20121;-64
2023/09/11 06:34:25;;;;;;;16.90;13.27;;;18.50;90.40;;;;;;4994792;28;20033;-65
2023/09/11 06:36:54;;;;;;;15.05;13.45;;;18.60;90.80;;;;;;4994967;28;20081;-64
2023/09/11 06:39:22;;;;;;;16.10;12.45;;;18.60;90.40;;;;;;4996280;28;20080;-64
2023/09/11 06:41:48;;;;;;;13.88;12.35;;;18.70;90.60;;;;;;4996841;28;20121;-66
2023/09/11 06:44:14;;;;;;;14.85;13.07;;;18.80;90.60;;;;;;4996571;28;20126;-64
2023/09/11 06:46:39;;;;;;;14.70;13.15;;;18.90;90.60;;;;;;4995697;28;20037;-64
2023/09/11 06:49:05;;;;;;;15.65;13.48;;;18.90;90.50;;;;;;4996865;28;20413;-65
2023/09/11 06:51:31;;;;;;;15.18;12.77;;;19.00;90.80;;;;;;4996618;28;20050;-65
2023/09/11 06:53:56;;;;;;;14.75;13.13;;;19.10;90.40;;;;;;4997467;28;20038;-64
2023/09/11 06:56:22;;;;;;;14.25;12.75;;;19.30;90.60;;;;;;4998503;28;20027;-64
2023/09/11 06:58:47;;;;;;;16.33;12.70;;;19.30;90.40;;;;;;4997607;28;20033;-64
2023/09/11 07:01:13;;;;;;;13.88;12.48;;;19.40;90.30;;;;;;4996908;28;20034;-64
2023/09/11 07:03:39;;;;;;;13.13;11.82;;;19.50;90.30;;;;;;4996390;28;20564;-64
2023/09/11 07:06:04;;;;;;;13.23;11.93;;;19.60;90.20;;;;;;4996326;28;20273;-65
2023/09/11 07:08:30;;;;;;;18.77;12.48;;;19.70;90.20;;;;;;4997165;28;20133;-64
2023/09/11 07:10:56;;;;;;;13.90;11.93;;;19.80;90.20;;;;;;4994587;28;20106;-65
2023/09/11 07:13:22;;;;;;;15.32;11.23;;;19.90;90.10;;;;;;4997170;28;20126;-64
2023/09/11 07:15:58;;;;;;;15.75;11.73;;;20.00;90.00;;;;;;5001188;28;20457;-64
2023/09/11 07:18:24;;;;;;;16.60;10.95;;;20.10;90.40;;;;;;5000958;28;20041;-64
2023/09/11 07:20:53;;;;;;;16.30;11.27;;;20.10;89.80;;;;;;5001002;28;20030;-64
2023/09/11 07:23:20;;;;;;;15.88;11.70;;;20.30;90.00;;;;;;5000610;28;20101;-64
2023/09/11 07:25:46;;;;;;;17.40;11.38;;;20.40;89.90;;;;;;4999463;28;20038;-65
2023/09/11 07:28:15;;;;;;;12.43;10.93;;;20.50;90.00;;;;;;5001251;28;20038;-64
2023/09/11 07:30:42;;;;;;;15.05;11.00;;;20.60;89.90;;;;;;4998811;28;20045;-64
2023/09/11 07:33:09;;;;;;;18.63;10.43;;;20.60;89.50;;;;;;4999868;28;20069;-64
2023/09/11 07:35:34;;;;;;;13.50;10.27;;;20.80;89.50;;;;;;4999883;28;20041;-64
2023/09/11 07:38:00;;;;;;;13.90;9.98;;;20.90;89.40;;;;;;4999908;28;20039;-64
2023/09/11 07:40:25;;;;;;;14.32;9.70;;;21.00;89.50;;;;;;4998884;28;20129;-64
2023/09/11 07:42:54;;;;;;;11.68;9.15;;;21.10;89.30;;;;;;5000593;28;20057;-65
2023/09/11 07:45:20;;;;;;;12.98;8.82;;;21.20;89.00;;;;;;5000636;28;20030;-64
2023/09/11 07:47:45;;;;;;;9.73;8.50;;;21.30;89.00;;;;;;4999047;28;20038;-65
2023/09/11 07:50:11;;;;;;;15.07;8.48;;;21.50;88.70;;;;;;4999296;28;20077;-64
2023/09/11 07:52:37;;;;;;;10.30;8.73;;;21.60;88.50;;;;;;4999024;28;20073;-65
2023/09/11 07:55:03;;;;;;;14.18;9.00;;;21.70;88.00;;;;;;5000334;28;20050;-64
2023/09/11 07:57:30;;;;;;;13.90;8.55;;;21.80;87.50;;;;;;4998966;28;20489;-64
2023/09/11 07:59:56;;;;;;;11.48;8.55;;;21.90;87.30;;;;;;5000139;28;20442;-65
2023/09/11 08:02:22;;;;;;;11.40;9.32;;;22.00;87.00;;;;;;4998434;28;20038;-65
2023/09/11 08:04:48;;;;;;;10.10;8.50;;;22.10;86.70;;;;;;4999308;28;20397;-64
2023/09/11 08:07:13;;;;;;;11.45;9.45;;;22.20;86.90;;;;;;5000031;28;20081;-64
2023/09/11 08:09:39;;;;;;;10.10;8.30;;;22.40;86.60;;;;;;5000562;28;20034;-64
2023/09/11 08:12:04;;;;;;;9.55;8.55;;;22.50;86.40;;;;;;4999041;28;20026;-64
2023/09/11 08:14:30;;;;;;;10.65;8.70;;;22.70;86.20;;;;;;5000729;28;20057;-65
2023/09/11 08:16:56;;;;;;;8.98;8.10;;;22.80;85.90;;;;;;5000963;28;20865;-64
2023/09/11 08:19:22;;;;;;;10.02;7.88;;;22.90;85.30;;;;;;5001382;28;20069;-64
2023/09/11 08:21:47;;;;;;;9.93;8.15;;;23.00;85.00;;;;;;5000314;28;20046;-64
2023/09/11 08:24:13;;;;;;;8.70;7.80;;;23.20;84.60;;;;;;5000497;28;20026;-66
2023/09/11 08:26:38;;;;;;;9.38;8.43;;;23.30;84.30;;;;;;4999659;28;20042;-64
2023/09/11 08:29:04;;;;;;;9.10;8.20;;;23.40;83.90;;;;;;5000812;28;20030;-65
2023/09/11 08:31:30;;;;;;;8.75;7.97;;;23.50;83.40;;;;;;5000084;28;20259;-64
2023/09/11 08:33:55;;;;;;;9.50;7.75;;;23.60;83.30;;;;;;4998727;28;20434;-65
2023/09/11 08:36:22;;;;;;;8.40;7.53;;;23.70;82.90;;;;;;4999637;28;20514;-65
2023/09/11 08:38:47;;;;;;;12.40;7.70;;;23.80;82.60;;;;;;4999193;28;20061;-65
2023/09/11 08:41:14;;;;;;;8.60;7.80;;;23.90;82.20;;;;;;4998994;28;20061;-65
2023/09/11 08:43:40;;;;;;;8.45;7.55;;;24.00;82.00;;;;;;5000206;28;20041;-64
2023/09/11 08:46:07;;;;;;;10.70;8.07;;;24.10;81.70;;;;;;4999338;28;20035;-64
2023/09/11 08:48:36;;;;;;;9.48;7.60;;;24.20;81.50;;;;;;4998507;28;20516;-65
2023/09/11 08:51:07;;;;;;;9.80;7.30;;;24.30;81.30;;;;;;4998321;28;20038;-64
2023/09/11 08:53:36;;;;;;;11.57;7.50;;;24.50;81.00;;;;;;4998982;28;20045;-65
2023/09/11 08:56:02;;;;;;;9.05;7.55;;;24.60;80.80;;;;;;4999015;28;20045;-64
2023/09/11 08:58:31;;;;;;;9.57;7.38;;;24.70;80.40;;;;;;4998775;28;20045;-63
2023/09/11 09:00:58;;;;;;;8.63;7.72;;;24.80;80.30;;;;;;4998476;28;20224;-65
2023/09/11 09:03:25;;;;;;;9.65;7.30;;;24.90;79.50;;;;;;4998565;28;20046;-65
2023/09/11 09:05:51;;;;;;;7.70;6.90;;;25.00;78.60;;;;;;4999363;28;20615;-65
2023/09/11 09:08:19;;;;;;;10.70;7.47;;;25.00;77.80;;;;;;4998896;28;20046;-65
2023/09/11 09:10:45;;;;;;;7.80;6.93;;;25.20;77.10;;;;;;4995131;28;20041;-65
2023/09/11 09:13:11;;;;;;;9.50;6.97;;;25.20;77.20;;;;;;4999188;28;20045;-64
2023/09/11 09:15:44;;;;;;;8.00;7.22;;;25.30;76.60;;;;;;4998876;28;20553;-64
2023/09/11 09:18:10;;;;;;;11.48;7.25;;;25.40;76.30;;;;;;4999158;28;20490;-65
2023/09/11 09:20:37;;;;;;;11.35;7.38;;;25.50;76.60;;;;;;4998315;28;20066;-64
2023/09/11 09:23:03;;;;;;;8.77;7.13;;;25.60;75.50;;;;;;4999288;28;20038;-65
2023/09/11 09:25:30;;;;;;;7.20;6.53;;;25.60;75.00;;;;;;4998077;28;20030;-65
2023/09/11 09:27:57;;;;;;;7.88;6.75;;;25.70;75.10;;;;;;4997775;28;20069;-65
2023/09/11 09:30:31;;;;;;;12.60;6.80;;;25.80;75.50;;;;;;4999083;28;20382;-64
2023/09/11 09:32:57;;;;;;;13.07;6.78;;;26.00;74.80;;;;;;4997648;28;20113;-65
2023/09/11 09:35:26;;;;;;;12.77;6.70;;;26.00;75.20;;;;;;4998199;28;20478;-65
2023/09/11 09:37:53;;;;;;;13.57;6.95;;;26.20;74.50;;;;;;4998933;28;20038;-65
2023/09/11 09:40:30;;;;;;;7.50;6.47;;;26.30;73.80;;;;;;4998629;28;20034;-65
2023/09/11 09:42:58;;;;;;;11.35;6.78;;;26.40;71.80;;;;;;4997380;28;20042;-64
2023/09/11 09:45:42;;;;;;;8.45;6.93;;;26.50;72.70;;;;;;4999083;28;20027;-65
2023/09/11 09:48:15;;;;;;;11.85;7.18;;;26.60;70.10;;;;;;4999909;28;20088;-65
2023/09/11 09:51:00;;;;;;;8.30;7.07;;;26.60;72.00;;;;;;4996507;28;20042;-64
2023/09/11 09:53:53;;;;;;;7.55;6.88;;;26.70;71.40;;;;;;4999214;28;20036;-65
2023/09/11 09:56:18;;;;;;;7.03;6.32;;;26.80;72.00;;;;;;4996460;28;20154;-64
2023/09/11 09:58:45;;;;;;;6.82;6.22;;;26.90;71.90;;;;;;4997471;28;20125;-65
2023/09/11 10:01:12;;;;;;;7.93;6.93;;;26.90;71.00;;;;;;4997760;28;20034;-64
2023/09/11 10:03:58;;;;;;;6.70;6.15;;;27.00;69.70;;;;;;4998497;28;20403;-65
2023/09/11 10:06:27;;;;;;;8.45;6.00;;;27.10;68.80;;;;;;4998396;28;20406;-65
2023/09/11 10:09:13;;;;;;;6.68;6.07;;;27.20;70.20;;;;;;4999170;28;20033;-65
2023/09/11 10:11:41;;;;;;;6.57;6.07;;;27.30;68.70;;;;;;4996157;28;20046;-64
2023/09/11 10:14:08;;;;;;;6.75;6.15;;;27.40;68.90;;;;;;4999302;28;20057;-64
2023/09/11 10:16:34;;;;;;;6.38;5.20;;;27.40;68.10;;;;;;4997879;28;20088;-64
2023/09/11 10:19:00;;;;;;;6.30;5.43;;;27.50;66.60;;;;;;4998334;28;20038;-64
2023/09/11 10:21:27;;;;;;;5.97;5.43;;;27.60;66.70;;;;;;4997469;28;20041;-65
2023/09/11 10:23:53;;;;;;;5.85;5.32;;;27.60;66.80;;;;;;4998125;28;20021;-65
2023/09/11 10:26:40;;;;;;;7.07;5.93;;;27.70;66.50;;;;;;4998617;28;20033;-65
2023/09/11 10:29:19;;;;;;;8.05;5.90;;;27.80;65.90;;;;;;4997072;28;20088;-65
2023/09/11 10:32:11;;;;;;;6.68;4.90;;;27.90;65.30;;;;;;4998028;28;20038;-65
2023/09/11 10:34:38;;;;;;;6.57;5.07;;;28.00;65.60;;;;;;4993133;28;20576;-65
2023/09/11 10:37:05;;;;;;;5.85;5.32;;;28.00;65.00;;;;;;4996943;28;20077;-65
2023/09/11 10:39:34;;;;;;;5.60;4.97;;;28.10;64.40;;;;;;4998325;28;20091;-64
2023/09/11 10:42:00;;;;;;;8.00;4.90;;;28.20;63.00;;;;;;4996616;28;20058;-66
2023/09/11 10:44:27;;;;;;;5.82;5.30;;;28.30;62.40;;;;;;4997217;28;20506;-65
2023/09/11 10:46:53;;;;;;;5.88;5.38;;;28.30;62.30;;;;;;4997586;28;20062;-64
2023/09/11 10:49:22;;;;;;;5.93;4.78;;;28.40;62.70;;;;;;4997221;28;20115;-64
2023/09/11 10:51:49;;;;;;;5.75;4.93;;;28.40;61.90;;;;;;4997310;28;20038;-64
2023/09/11 10:54:16;;;;;;;5.05;4.18;;;28.50;61.50;;;;;;4996529;28;20519;-66
2023/09/11 10:56:42;;;;;;;4.65;4.25;;;28.50;59.50;;;;;;4997141;28;20064;-65
2023/09/11 10:59:11;;;;;;;5.22;4.72;;;28.60;59.50;;;;;;4996910;28;20133;-66
2023/09/11 11:01:37;;;;;;;4.93;4.20;;;28.60;58.70;;;;;;4996846;28;20026;-65
2023/09/11 11:04:04;;;;;;;6.72;4.70;;;28.70;59.30;;;;;;4995538;28;20058;-66
2023/09/11 11:06:31;;;;;;;4.93;4.45;;;28.70;58.40;;;;;;4996705;28;20031;-65
2023/09/11 11:08:57;;;;;;;4.75;4.20;;;28.70;58.70;;;;;;4996842;28;20502;-65
2023/09/11 11:11:30;;;;;;;5.38;4.30;;;28.80;57.90;;;;;;4995859;28;20031;-65
2023/09/11 11:14:17;;;;;;;6.88;4.55;;;28.80;57.20;;;;;;4996123;28;20405;-64
2023/09/11 11:16:59;;;;;;;5.25;4.75;;;28.80;56.60;;;;;;4996831;28;20042;-65
2023/09/11 11:19:30;;;;;;;4.50;4.10;;;28.80;57.00;;;;;;4996525;28;20113;-65
2023/09/11 11:21:56;;;;;;;7.38;4.50;;;28.90;57.30;;;;;;4998023;28;20417;-65
2023/09/11 11:24:24;;;;;;;5.43;4.53;;;29.00;58.10;;;;;;4995441;28;20034;-65
2023/09/11 11:26:53;;;;;;;5.80;4.60;;;29.00;57.90;;;;;;4997189;28;20072;-65
2023/09/11 11:29:19;;;;;;;5.43;4.43;;;29.10;57.80;;;;;;4997234;28;20148;-65
2023/09/11 11:31:48;;;;;;;5.93;4.70;;;29.20;57.50;;;;;;4997385;28;20353;-65
2023/09/11 11:34:18;;;;;;;8.68;4.70;;;29.20;57.30;;;;;;4996570;28;20041;-65
2023/09/11 11:36:45;;;;;;;4.75;4.35;;;29.20;57.20;;;;;;4996747;28;20089;-65
2023/09/11 11:39:11;;;;;;;4.55;4.15;;;29.30;57.20;;;;;;4996953;28;20041;-64
2023/09/11 11:41:37;;;;;;;5.22;4.72;;;29.30;56.40;;;;;;4996435;28;20444;-65
2023/09/11 11:44:04;;;;;;;4.80;4.32;;;29.40;56.40;;;;;;4996980;28;20077;-65
2023/09/11 11:46:30;;;;;;;6.10;4.60;;;29.40;56.70;;;;;;4994622;28;20034;-64
2023/09/11 11:48:56;;;;;;;6.15;4.55;;;29.50;56.20;;;;;;4996825;28;20104;-64
2023/09/11 11:51:44;;;;;;;4.63;4.22;;;29.50;55.60;;;;;;4996735;28;20490;-65
2023/09/11 11:54:23;;;;;;;5.50;4.50;;;29.50;55.00;;;;;;4995933;28;20077;-65
2023/09/11 11:56:57;;;;;;;5.13;4.47;;;29.60;54.20;;;;;;4997138;28;20072;-65
2023/09/11 11:59:23;;;;;;;4.63;4.10;;;29.60;55.00;;;;;;4995703;28;20022;-66
2023/09/11 12:01:49;;;;;;;4.97;4.57;;;29.60;55.70;;;;;;4998983;28;20611;-65
2023/09/11 12:04:14;;;;;;;5.25;4.60;;;29.70;55.70;;;;;;4999130;28;20133;-65
2023/09/11 12:06:40;;;;;;;4.88;4.47;;;29.70;55.40;;;;;;5000238;28;20580;-65
2023/09/11 12:09:09;;;;;;;4.95;4.40;;;29.70;55.40;;;;;;5002585;28;20081;-64
2023/09/11 12:11:37;;;;;;;4.55;4.15;;;29.80;55.20;;;;;;5001243;28;20383;-65
2023/09/11 12:14:03;;;;;;;6.53;4.03;;;29.80;55.00;;;;;;5000948;28;20031;-65
2023/09/11 12:16:32;;;;;;;6.78;4.32;;;29.80;54.70;;;;;;5000860;28;20037;-65
2023/09/11 12:18:58;;;;;;;7.30;4.32;;;29.90;54.20;;;;;;5000512;28;20037;-65
2023/09/11 12:21:23;;;;;;;5.75;4.30;;;29.90;54.30;;;;;;5000013;28;20030;-66
2023/09/11 12:23:49;;;;;;;4.60;4.20;;;29.90;54.50;;;;;;4999718;28;20046;-65
2023/09/11 12:26:15;;;;;;;5.03;4.00;;;29.90;53.50;;;;;;4999175;28;20035;-65
2023/09/11 12:28:40;;;;;;;5.22;4.15;;;29.90;53.40;;;;;;4999820;28;20056;-65
2023/09/11 12:31:06;;;;;;;4.97;3.90;;;30.00;53.50;;;;;;5000024;28;20030;-65
2023/09/11 12:33:34;;;;;;;4.65;4.25;;;30.00;53.40;;;;;;4999560;28;20438;-65
2023/09/11 12:36:00;;;;;;;4.40;4.10;;;30.10;53.00;;;;;;4998958;28;20050;-66
2023/09/11 12:38:26;;;;;;;4.13;3.72;;;30.10;52.30;;;;;;4999712;28;20037;-66
2023/09/11 12:40:52;;;;;;;4.80;4.40;;;30.20;52.40;;;;;;4999279;28;20484;-65